sensor_id;sensor_type;location;lat;lon;timestamp;pressure;altitude;pressure_sealevel;temperature;humidity
62881;BME280;48969;49.934;8.596;2022-09-09T00:00:47;100151.19;;;18.42;89.75
62881;BME280;48969;49.934;8.596;2022-09-09T00:03:17;100147.09;;;18.38;89.03
62881;BME280;48969;49.934;8.596;2022-09-09T00:05:53;100143.06;;;18.34;86.83
62881;BME280;48969;49.934;8.596;2022-09-09T00:08:22;100150.09;;;18.35;88.67
62881;BME280;48969;49.934;8.596;2022-09-09T00:10:56;100151.13;;;18.34;88.32
62881;BME280;48969;49.934;8.596;2022-09-09T00:13:34;100145.06;;;18.32;88.75
62881;BME280;48969;49.934;8.596;2022-09-09T00:16:20;100151.25;;;18.32;89.13
62881;BME280;48969;49.934;8.596;2022-09-09T00:19:05;100145.56;;;18.35;91.81
62881;BME280;48969;49.934;8.596;2022-09-09T00:21:37;100146.03;;;18.31;89.58
62881;BME280;48969;49.934;8.596;2022-09-09T00:24:23;100144.34;;;18.30;90.55
62881;BME280;48969;49.934;8.596;2022-09-09T00:26:54;100149.84;;;18.28;90.37
62881;BME280;48969;49.934;8.596;2022-09-09T00:29:44;100133.75;;;18.28;91.77
62881;BME280;48969;49.934;8.596;2022-09-09T00:32:15;100137.03;;;18.22;89.47
62881;BME280;48969;49.934;8.596;2022-09-09T00:34:52;100137.03;;;18.22;89.75
62881;BME280;48969;49.934;8.596;2022-09-09T00:37:20;100141.41;;;18.23;90.92
62881;BME280;48969;49.934;8.596;2022-09-09T00:39:48;100135.50;;;18.19;89.42
62881;BME280;48969;49.934;8.596;2022-09-09T00:42:24;100139.19;;;18.18;90.17
62881;BME280;48969;49.934;8.596;2022-09-09T00:47:54;100144.88;;;18.15;90.34
62881;BME280;48969;49.934;8.596;2022-09-09T00:50:52;100144.88;;;18.15;91.25
62881;BME280;48969;49.934;8.596;2022-09-09T00:53:31;100149.53;;;18.13;90.45
62881;BME280;48969;49.934;8.596;2022-09-09T00:56:16;100140.63;;;18.13;91.53
62881;BME280;48969;49.934;8.596;2022-09-09T00:59:36;100150.81;;;18.09;91.20
62881;BME280;48969;49.934;8.596;2022-09-09T01:01:36;100147.13;;;18.10;92.94
62881;BME280;48969;49.934;8.596;2022-09-09T01:04:04;100156.47;;;18.06;90.55
62881;BME280;48969;49.934;8.596;2022-09-09T01:06:35;100145.72;;;18.06;91.23
62881;BME280;48969;49.934;8.596;2022-09-09T01:09:18;100142.22;;;18.06;90.04
62881;BME280;48969;49.934;8.596;2022-09-09T01:12:02;100146.75;;;18.05;89.98
62881;BME280;48969;49.934;8.596;2022-09-09T01:20:17;100130.25;;;18.00;89.83
62881;BME280;48969;49.934;8.596;2022-09-09T01:28:48;100123.50;;;17.96;87.79
62881;BME280;48969;49.934;8.596;2022-09-09T01:31:21;100127.84;;;17.97;88.66
62881;BME280;48969;49.934;8.596;2022-09-09T01:33:48;100135.91;;;17.97;89.07
62881;BME280;48969;49.934;8.596;2022-09-09T01:36:19;100133.91;;;17.99;90.02
62881;BME280;48969;49.934;8.596;2022-09-09T01:38:47;100127.84;;;17.97;89.77
62881;BME280;48969;49.934;8.596;2022-09-09T01:41:12;100126.03;;;17.97;89.95
62881;BME280;48969;49.934;8.596;2022-09-09T01:43:37;100128.16;;;17.94;87.82
62881;BME280;48969;49.934;8.596;2022-09-09T01:46:03;100123.78;;;17.93;87.41
62881;BME280;48969;49.934;8.596;2022-09-09T01:48:29;100120.41;;;17.91;87.51
62881;BME280;48969;49.934;8.596;2022-09-09T01:50:55;100127.31;;;17.93;90.01
62881;BME280;48969;49.934;8.596;2022-09-09T01:53:21;100118.25;;;17.94;88.87
62881;BME280;48969;49.934;8.596;2022-09-09T01:55:58;100120.41;;;17.91;88.34
62881;BME280;48969;49.934;8.596;2022-09-09T01:58:45;100123.22;;;17.89;88.58
62881;BME280;48969;49.934;8.596;2022-09-09T02:03:56;100126.94;;;17.88;89.05
62881;BME280;48969;49.934;8.596;2022-09-09T02:08:52;100134.28;;;17.86;89.84
62881;BME280;48969;49.934;8.596;2022-09-09T02:11:22;100131.59;;;17.86;89.26
62881;BME280;48969;49.934;8.596;2022-09-09T02:13:51;100122.84;;;17.84;88.59
62881;BME280;48969;49.934;8.596;2022-09-09T02:16:32;100131.41;;;17.88;89.33
62881;BME280;48969;49.934;8.596;2022-09-09T02:19:06;100132.44;;;17.87;88.56
62881;BME280;48969;49.934;8.596;2022-09-09T02:21:32;100142.00;;;17.89;91.18
62881;BME280;48969;49.934;8.596;2022-09-09T02:24:02;100139.47;;;17.88;90.45
62881;BME280;48969;49.934;8.596;2022-09-09T02:26:31;100140.63;;;17.85;89.32
62881;BME280;48969;49.934;8.596;2022-09-09T02:28:59;100145.13;;;17.85;90.45
62881;BME280;48969;49.934;8.596;2022-09-09T02:31:26;100141.44;;;17.86;90.63
62881;BME280;48969;49.934;8.596;2022-09-09T02:33:57;100144.69;;;17.89;90.70
62881;BME280;48969;49.934;8.596;2022-09-09T02:36:26;100143.72;;;17.90;90.02
62881;BME280;48969;49.934;8.596;2022-09-09T02:38:55;100144.69;;;17.89;89.57
62881;BME280;48969;49.934;8.596;2022-09-09T02:41:26;100142.00;;;17.89;88.77
62881;BME280;48969;49.934;8.596;2022-09-09T02:43:53;100140.59;;;17.95;91.25
62881;BME280;48969;49.934;8.596;2022-09-09T02:48:59;100145.34;;;18.01;91.80
62881;BME280;48969;49.934;8.596;2022-09-09T02:51:35;100144.50;;;18.01;90.55
62881;BME280;48969;49.934;8.596;2022-09-09T02:56:52;100144.06;;;18.05;91.63
62881;BME280;48969;49.934;8.596;2022-09-09T02:59:19;100142.22;;;18.06;93.25
62881;BME280;48969;49.934;8.596;2022-09-09T03:01:45;100134.34;;;18.04;91.57
62881;BME280;48969;49.934;8.596;2022-09-09T03:04:12;100136.84;;;18.06;92.20
62881;BME280;48969;49.934;8.596;2022-09-09T03:06:37;100142.06;;;18.07;92.44
62881;BME280;48969;49.934;8.596;2022-09-09T03:09:03;100141.50;;;18.04;90.46
62881;BME280;48969;49.934;8.596;2022-09-09T03:11:28;100144.38;;;18.02;90.69
62881;BME280;48969;49.934;8.596;2022-09-09T03:13:54;100153.38;;;18.01;89.73
62881;BME280;48969;49.934;8.596;2022-09-09T03:16:24;100154.78;;;18.05;92.98
62881;BME280;48969;49.934;8.596;2022-09-09T03:18:49;100142.38;;;18.04;92.43
62881;BME280;48969;49.934;8.596;2022-09-09T03:21:15;100148.84;;;18.02;92.58
62881;BME280;48969;49.934;8.596;2022-09-09T03:23:40;100144.50;;;18.01;92.30
62881;BME280;48969;49.934;8.596;2022-09-09T03:26:06;100142.53;;;18.03;94.32
62881;BME280;48969;49.934;8.596;2022-09-09T03:28:31;100142.53;;;18.03;91.32
62881;BME280;48969;49.934;8.596;2022-09-09T03:31:00;100140.28;;;17.98;89.83
62881;BME280;48969;49.934;8.596;2022-09-09T03:33:26;100146.47;;;17.98;92.05
62881;BME280;48969;49.934;8.596;2022-09-09T03:35:51;100154.69;;;17.97;91.76
62881;BME280;48969;49.934;8.596;2022-09-09T03:38:17;100149.03;;;18.00;94.18
62881;BME280;48969;49.934;8.596;2022-09-09T03:40:50;100156.38;;;17.98;92.73
62881;BME280;48969;49.934;8.596;2022-09-09T03:43:16;100156.06;;;18.01;93.69
62881;BME280;48969;49.934;8.596;2022-09-09T03:45:45;100160.59;;;18.01;92.68
62881;BME280;48969;49.934;8.596;2022-09-09T03:48:13;100154.69;;;17.97;92.25
62881;BME280;48969;49.934;8.596;2022-09-09T03:50:38;100140.41;;;17.96;93.09
62881;BME280;48969;49.934;8.596;2022-09-09T03:53:03;100131.69;;;17.94;93.84
62881;BME280;48969;49.934;8.596;2022-09-09T03:55:31;100140.03;;;17.91;93.27
62881;BME280;48969;49.934;8.596;2022-09-09T03:57:56;100137.66;;;17.88;93.05
62881;BME280;48969;49.934;8.596;2022-09-09T04:00:22;100137.34;;;17.91;95.13
62881;BME280;48969;49.934;8.596;2022-09-09T04:02:47;100145.53;;;17.90;94.08
62881;BME280;48969;49.934;8.596;2022-09-09T04:05:12;100131.41;;;17.88;93.81
62881;BME280;48969;49.934;8.596;2022-09-09T04:07:39;100137.41;;;17.82;92.45
62881;BME280;48969;49.934;8.596;2022-09-09T04:10:05;100132.13;;;17.80;92.45
62881;BME280;48969;49.934;8.596;2022-09-09T04:12:30;100134.13;;;17.78;91.17
62881;BME280;48969;49.934;8.596;2022-09-09T04:14:56;100141.47;;;17.76;90.35
62881;BME280;48969;49.934;8.596;2022-09-09T04:17:21;100126.91;;;17.78;91.67
62881;BME280;48969;49.934;8.596;2022-09-09T04:19:47;100128.75;;;17.78;91.42
62881;BME280;48969;49.934;8.596;2022-09-09T04:22:12;100124.22;;;17.78;91.38
62881;BME280;48969;49.934;8.596;2022-09-09T04:24:37;100123.41;;;17.78;91.53
62881;BME280;48969;49.934;8.596;2022-09-09T04:27:03;100127.91;;;17.77;92.00
62881;BME280;48969;49.934;8.596;2022-09-09T04:29:28;100121.53;;;17.78;92.76
62881;BME280;48969;49.934;8.596;2022-09-09T04:31:53;100129.03;;;17.85;95.70
62881;BME280;48969;49.934;8.596;2022-09-09T04:34:18;100126.06;;;17.78;93.57
62881;BME280;48969;49.934;8.596;2022-09-09T04:36:44;100126.06;;;17.78;93.39
62881;BME280;48969;49.934;8.596;2022-09-09T04:39:09;100122.56;;;17.77;94.18
62881;BME280;48969;49.934;8.596;2022-09-09T04:41:34;100120.19;;;17.74;93.59
62881;BME280;48969;49.934;8.596;2022-09-09T04:44:00;100122.25;;;17.81;94.98
62881;BME280;48969;49.934;8.596;2022-09-09T04:46:25;100125.22;;;17.77;94.67
62881;BME280;48969;49.934;8.596;2022-09-09T04:48:51;100126.22;;;17.76;94.90
62881;BME280;48969;49.934;8.596;2022-09-09T04:51:18;100127.22;;;17.75;95.08
62881;BME280;48969;49.934;8.596;2022-09-09T04:53:43;100135.25;;;17.75;95.65
62881;BME280;48969;49.934;8.596;2022-09-09T04:56:12;100138.25;;;17.72;94.51
62881;BME280;48969;49.934;8.596;2022-09-09T04:58:39;100130.66;;;17.68;92.76
62881;BME280;48969;49.934;8.596;2022-09-09T05:01:12;100138.81;;;17.66;93.88
62881;BME280;48969;49.934;8.596;2022-09-09T05:03:38;100147.72;;;17.67;94.98
62881;BME280;48969;49.934;8.596;2022-09-09T05:06:07;100155.63;;;17.68;96.67
62881;BME280;48969;49.934;8.596;2022-09-09T05:08:35;100158.16;;;17.70;97.04
62881;BME280;48969;49.934;8.596;2022-09-09T05:11:01;100157.59;;;17.66;98.01
62881;BME280;48969;49.934;8.596;2022-09-09T05:13:26;100160.72;;;17.62;96.35
62881;BME280;48969;49.934;8.596;2022-09-09T05:15:53;100168.19;;;17.58;94.87
62881;BME280;48969;49.934;8.596;2022-09-09T05:18:18;100172.41;;;17.61;97.10
62881;BME280;48969;49.934;8.596;2022-09-09T05:20:44;100172.19;;;17.54;94.66
62881;BME280;48969;49.934;8.596;2022-09-09T05:23:09;100183.31;;;17.59;97.40
62881;BME280;48969;49.934;8.596;2022-09-09T05:25:37;100182.59;;;17.57;98.23
62881;BME280;48969;49.934;8.596;2022-09-09T05:28:02;100188.28;;;17.54;97.11
62881;BME280;48969;49.934;8.596;2022-09-09T05:30:28;100189.25;;;17.53;96.33
62881;BME280;48969;49.934;8.596;2022-09-09T05:32:56;100188.97;;;17.46;95.26
62881;BME280;48969;49.934;8.596;2022-09-09T05:35:21;100192.34;;;17.48;95.99
62881;BME280;48969;49.934;8.596;2022-09-09T05:37:46;100190.81;;;17.46;94.40
62881;BME280;48969;49.934;8.596;2022-09-09T05:40:12;100191.22;;;17.51;97.36
62881;BME280;48969;49.934;8.596;2022-09-09T05:42:38;100181.75;;;17.47;95.95
62881;BME280;48969;49.934;8.596;2022-09-09T05:45:05;100188.56;;;17.41;96.26
62881;BME280;48969;49.934;8.596;2022-09-09T05:47:32;100189.53;;;17.40;96.05
62881;BME280;48969;49.934;8.596;2022-09-09T05:49:57;100199.41;;;17.40;94.54
62881;BME280;48969;49.934;8.596;2022-09-09T05:52:23;100185.31;;;17.38;95.06
62881;BME280;48969;49.934;8.596;2022-09-09T05:54:49;100201.38;;;17.38;95.99
62881;BME280;48969;49.934;8.596;2022-09-09T05:57:14;100209.44;;;17.38;95.51
62881;BME280;48969;49.934;8.596;2022-09-09T05:59:40;100210.00;;;17.41;96.66
62881;BME280;48969;49.934;8.596;2022-09-09T06:02:05;100210.97;;;17.40;96.82
62881;BME280;48969;49.934;8.596;2022-09-09T06:04:30;100203.63;;;17.42;95.43
62881;BME280;48969;49.934;8.596;2022-09-09T06:06:56;100200.97;;;17.42;95.52
62881;BME280;48969;49.934;8.596;2022-09-09T06:09:22;100199.84;;;17.45;95.85
62881;BME280;48969;49.934;8.596;2022-09-09T06:11:47;100200.09;;;17.51;95.49
62881;BME280;48969;49.934;8.596;2022-09-09T06:14:13;100207.28;;;17.61;96.09
62881;BME280;48969;49.934;8.596;2022-09-09T06:16:38;100203.06;;;17.68;96.47
62881;BME280;48969;49.934;8.596;2022-09-09T06:19:04;100202.44;;;17.74;95.12
62881;BME280;48969;49.934;8.596;2022-09-09T06:21:31;100203.84;;;17.78;92.81
62881;BME280;48969;49.934;8.596;2022-09-09T06:23:58;100203.44;;;17.83;95.04
62881;BME280;48969;49.934;8.596;2022-09-09T06:26:29;100206.13;;;17.83;94.44
62881;BME280;48969;49.934;8.596;2022-09-09T06:28:56;100203.31;;;17.84;94.17
62881;BME280;48969;49.934;8.596;2022-09-09T06:31:24;100207.84;;;17.84;93.86
62881;BME280;48969;49.934;8.596;2022-09-09T06:33:51;100209.50;;;17.85;93.00
62881;BME280;48969;49.934;8.596;2022-09-09T06:36:22;100203.44;;;17.83;95.31
62881;BME280;48969;49.934;8.596;2022-09-09T06:38:48;100212.34;;;17.83;94.23
62881;BME280;48969;49.934;8.596;2022-09-09T06:41:16;100212.91;;;17.87;95.13
62881;BME280;48969;49.934;8.596;2022-09-09T06:43:43;100208.50;;;17.86;93.57
62881;BME280;48969;49.934;8.596;2022-09-09T06:46:11;100205.69;;;17.87;93.84
62881;BME280;48969;49.934;8.596;2022-09-09T06:48:38;100204.72;;;17.88;92.98
62881;BME280;48969;49.934;8.596;2022-09-09T06:51:19;100202.44;;;17.93;93.40
62881;BME280;48969;49.934;8.596;2022-09-09T06:53:53;100212.16;;;17.94;94.30
62881;BME280;48969;49.934;8.596;2022-09-09T06:56:28;100203.84;;;17.97;94.28
62881;BME280;48969;49.934;8.596;2022-09-09T06:58:55;100204.53;;;18.00;92.88
62881;BME280;48969;49.934;8.596;2022-09-09T07:01:23;100204.66;;;17.98;93.38
62881;BME280;48969;49.934;8.596;2022-09-09T07:03:51;100207.22;;;18.00;93.89
62881;BME280;48969;49.934;8.596;2022-09-09T07:06:25;100209.03;;;17.99;92.91
62881;BME280;48969;49.934;8.596;2022-09-09T07:08:56;100216.09;;;18.00;93.83
62881;BME280;48969;49.934;8.596;2022-09-09T07:11:24;100220.06;;;17.96;92.30
62881;BME280;48969;49.934;8.596;2022-09-09T07:13:51;100218.94;;;17.98;93.95
62881;BME280;48969;49.934;8.596;2022-09-09T07:16:19;100212.84;;;17.96;95.34
62881;BME280;48969;49.934;8.596;2022-09-09T07:18:46;100212.31;;;17.93;93.81
62881;BME280;48969;49.934;8.596;2022-09-09T07:21:13;100217.97;;;17.90;93.30
62881;BME280;48969;49.934;8.596;2022-09-09T07:23:41;100217.69;;;17.93;93.83
62881;BME280;48969;49.934;8.596;2022-09-09T07:26:10;100217.53;;;17.94;92.67
62881;BME280;48969;49.934;8.596;2022-09-09T07:28:36;100217.53;;;17.94;94.06
62881;BME280;48969;49.934;8.596;2022-09-09T07:31:02;100211.44;;;17.92;94.45
62881;BME280;48969;49.934;8.596;2022-09-09T07:33:29;100214.13;;;17.92;93.77
62881;BME280;48969;49.934;8.596;2022-09-09T07:36:06;100221.06;;;17.95;95.64
62881;BME280;48969;49.934;8.596;2022-09-09T07:38:37;100225.75;;;17.93;93.41
62881;BME280;48969;49.934;8.596;2022-09-09T07:41:07;100225.44;;;17.96;94.22
62881;BME280;48969;49.934;8.596;2022-09-09T07:43:38;100235.16;;;17.97;94.67
62881;BME280;48969;49.934;8.596;2022-09-09T07:46:03;100233.47;;;17.96;94.19
62881;BME280;48969;49.934;8.596;2022-09-09T07:48:29;100239.56;;;17.98;94.49
62881;BME280;48969;49.934;8.596;2022-09-09T07:51:12;100239.41;;;18.00;94.26
62881;BME280;48969;49.934;8.596;2022-09-09T07:53:38;100240.78;;;18.04;91.45
62881;BME280;48969;49.934;8.596;2022-09-09T07:56:09;100241.50;;;18.06;94.66
62881;BME280;48969;49.934;8.596;2022-09-09T07:58:39;100245.00;;;18.06;94.00
62881;BME280;48969;49.934;8.596;2022-09-09T08:01:07;100247.41;;;18.09;95.22
62881;BME280;48969;49.934;8.596;2022-09-09T08:03:33;100245.56;;;18.10;95.24
62881;BME280;48969;49.934;8.596;2022-09-09T08:06:04;100247.97;;;18.13;92.30
62881;BME280;48969;49.934;8.596;2022-09-09T08:08:31;100251.22;;;18.16;94.42
62881;BME280;48969;49.934;8.596;2022-09-09T08:11:04;100257.28;;;18.18;94.96
62881;BME280;48969;49.934;8.596;2022-09-09T08:13:30;100259.13;;;18.18;95.88
62881;BME280;48969;49.934;8.596;2022-09-09T08:16:04;100264.31;;;18.19;94.12
62881;BME280;48969;49.934;8.596;2022-09-09T08:18:29;100258.38;;;18.26;94.22
62881;BME280;48969;49.934;8.596;2022-09-09T08:20:55;100259.47;;;18.33;94.97
62881;BME280;48969;49.934;8.596;2022-09-09T08:23:20;100266.25;;;18.37;93.82
62881;BME280;48969;49.934;8.596;2022-09-09T08:25:46;100258.03;;;18.38;94.16
62881;BME280;48969;49.934;8.596;2022-09-09T08:28:14;100264.94;;;18.41;94.14
62881;BME280;48969;49.934;8.596;2022-09-09T08:30:39;100277.53;;;18.41;93.97
62881;BME280;48969;49.934;8.596;2022-09-09T08:33:04;100273.72;;;18.43;93.92
62881;BME280;48969;49.934;8.596;2022-09-09T08:35:30;100278.06;;;18.44;94.94
62881;BME280;48969;49.934;8.596;2022-09-09T08:37:58;100272.84;;;18.43;94.01
62881;BME280;48969;49.934;8.596;2022-09-09T08:40:29;100279.78;;;18.45;91.66
62881;BME280;48969;49.934;8.596;2022-09-09T08:42:58;100280.44;;;18.47;92.64
62881;BME280;48969;49.934;8.596;2022-09-09T08:46:08;100275.78;;;18.49;94.16
62881;BME280;48969;49.934;8.596;2022-09-09T08:48:40;100275.25;;;18.46;94.53
62881;BME280;48969;49.934;8.596;2022-09-09T08:51:08;100274.41;;;18.45;93.66
62881;BME280;48969;49.934;8.596;2022-09-09T08:53:41;100261.66;;;18.47;92.19
62881;BME280;48969;49.934;8.596;2022-09-09T08:56:16;100261.38;;;18.50;93.44
62881;BME280;48969;49.934;8.596;2022-09-09T08:58:49;100251.16;;;18.54;92.01
62881;BME280;48969;49.934;8.596;2022-09-09T09:04:02;100257.34;;;18.64;91.14
62881;BME280;48969;49.934;8.596;2022-09-09T09:11:48;100251.75;;;18.75;92.01
62881;BME280;48969;49.934;8.596;2022-09-09T09:14:23;100251.63;;;18.77;91.42
62881;BME280;48969;49.934;8.596;2022-09-09T09:17:04;100251.63;;;18.77;91.80
62881;BME280;48969;49.934;8.596;2022-09-09T09:19:34;100248.47;;;18.81;91.38
62881;BME280;48969;49.934;8.596;2022-09-09T09:22:20;100252.88;;;18.83;91.00
62881;BME280;48969;49.934;8.596;2022-09-09T09:25:10;100251.03;;;18.83;89.80
62881;BME280;48969;49.934;8.596;2022-09-09T09:30:29;100255.88;;;18.79;89.41
62881;BME280;48969;49.934;8.596;2022-09-09T09:33:02;100254.56;;;18.84;88.49
62881;BME280;48969;49.934;8.596;2022-09-09T09:35:31;100255.94;;;18.88;89.46
62881;BME280;48969;49.934;8.596;2022-09-09T09:37:56;100255.81;;;18.89;91.91
62881;BME280;48969;49.934;8.596;2022-09-09T09:40:22;100244.03;;;18.90;92.29
62881;BME280;48969;49.934;8.596;2022-09-09T09:42:59;100242.69;;;18.86;93.56
62881;BME280;48969;49.934;8.596;2022-09-09T09:45:43;100230.78;;;18.89;91.18
62881;BME280;48969;49.934;8.596;2022-09-09T09:48:13;100234.38;;;18.97;89.04
62881;BME280;48969;49.934;8.596;2022-09-09T09:50:51;100224.78;;;18.95;90.69
62881;BME280;48969;49.934;8.596;2022-09-09T09:53:21;100241.06;;;18.93;91.73
62881;BME280;48969;49.934;8.596;2022-09-09T09:55:53;100220.88;;;18.89;94.12
62881;BME280;48969;49.934;8.596;2022-09-09T09:58:19;100233.06;;;18.84;95.87
62881;BME280;48969;49.934;8.596;2022-09-09T10:00:52;100234.38;;;18.79;95.73
62881;BME280;48969;49.934;8.596;2022-09-09T10:03:25;100236.63;;;18.74;95.35
62881;BME280;48969;49.934;8.596;2022-09-09T10:05:52;100239.94;;;18.68;95.82
62881;BME280;48969;49.934;8.596;2022-09-09T10:08:18;100229.09;;;18.60;94.96
62881;BME280;48969;49.934;8.596;2022-09-09T10:16:40;100214.88;;;18.50;94.83
62881;BME280;48969;49.934;8.596;2022-09-09T10:19:32;100225.94;;;18.65;94.57
62881;BME280;48969;49.934;8.596;2022-09-09T10:24:54;100212.97;;;19.06;93.70
62881;BME280;48969;49.934;8.596;2022-09-09T10:30:14;100223.72;;;19.23;91.29
62881;BME280;48969;49.934;8.596;2022-09-09T10:32:46;100228.94;;;19.25;90.43
62881;BME280;48969;49.934;8.596;2022-09-09T10:38:05;100217.47;;;19.41;88.39
62881;BME280;48969;49.934;8.596;2022-09-09T10:54:17;100194.09;;;19.85;82.83
62881;BME280;48969;49.934;8.596;2022-09-09T10:56:53;100181.66;;;19.84;83.93
62881;BME280;48969;49.934;8.596;2022-09-09T10:59:25;100187.25;;;19.91;83.21
62881;BME280;48969;49.934;8.596;2022-09-09T11:04:35;100186.38;;;19.91;81.74
62881;BME280;48969;49.934;8.596;2022-09-09T11:07:08;100190.41;;;19.87;79.45
62881;BME280;48969;49.934;8.596;2022-09-09T11:09:40;100194.44;;;19.91;79.28
62881;BME280;48969;49.934;8.596;2022-09-09T11:12:10;100186.50;;;19.81;78.52
62881;BME280;48969;49.934;8.596;2022-09-09T11:14:46;100184.06;;;19.70;78.94
62881;BME280;48969;49.934;8.596;2022-09-09T11:17:22;100189.03;;;19.82;75.89
62881;BME280;48969;49.934;8.596;2022-09-09T11:19:49;100189.03;;;19.82;76.80
62881;BME280;48969;49.934;8.596;2022-09-09T11:22:34;100184.09;;;20.04;74.92
62881;BME280;48969;49.934;8.596;2022-09-09T11:25:08;100194.56;;;20.15;75.33
62881;BME280;48969;49.934;8.596;2022-09-09T11:36:23;100179.94;;;19.83;78.80
62881;BME280;48969;49.934;8.596;2022-09-09T11:41:44;100186.78;;;19.70;78.23
62881;BME280;48969;49.934;8.596;2022-09-09T11:44:19;100190.28;;;19.70;77.29
62881;BME280;48969;49.934;8.596;2022-09-09T11:46:49;100188.28;;;19.72;78.50
62881;BME280;48969;49.934;8.596;2022-09-09T11:51:56;100194.84;;;19.70;78.05
62881;BME280;48969;49.934;8.596;2022-09-09T11:54:29;100194.59;;;19.63;79.98
62881;BME280;48969;49.934;8.596;2022-09-09T11:56:55;100185.69;;;19.62;82.24
62881;BME280;48969;49.934;8.596;2022-09-09T11:59:23;100197.53;;;19.70;80.55
62881;BME280;48969;49.934;8.596;2022-09-09T12:02:09;100193.16;;;19.69;81.97
62881;BME280;48969;49.934;8.596;2022-09-09T12:04:39;100185.34;;;19.65;80.97
62881;BME280;48969;49.934;8.596;2022-09-09T12:09:43;100191.22;;;19.61;81.16
62881;BME280;48969;49.934;8.596;2022-09-09T12:15:24;100213.38;;;19.55;81.89
62881;BME280;48969;49.934;8.596;2022-09-09T12:17:26;100190.47;;;19.51;82.50
62881;BME280;48969;49.934;8.596;2022-09-09T12:23:25;100180.94;;;19.56;86.01
62881;BME280;48969;49.934;8.596;2022-09-09T12:25:58;100172.94;;;19.64;82.07
62881;BME280;48969;49.934;8.596;2022-09-09T12:33:45;100168.53;;;19.63;83.24
62881;BME280;48969;49.934;8.596;2022-09-09T12:36:19;100169.81;;;19.51;82.70
62881;BME280;48969;49.934;8.596;2022-09-09T12:38:46;100176.34;;;19.49;82.25
62881;BME280;48969;49.934;8.596;2022-09-09T12:41:22;100182.06;;;19.46;82.27
62881;BME280;48969;49.934;8.596;2022-09-09T12:43:47;100194.81;;;19.43;84.19
62881;BME280;48969;49.934;8.596;2022-09-09T12:48:57;100187.72;;;19.42;84.14
62881;BME280;48969;49.934;8.596;2022-09-09T12:51:30;100189.56;;;19.42;83.93
62881;BME280;48969;49.934;8.596;2022-09-09T12:53:58;100180.09;;;19.56;81.29
62881;BME280;48969;49.934;8.596;2022-09-09T12:56:26;100178.72;;;19.52;79.02
62881;BME280;48969;49.934;8.596;2022-09-09T12:58:55;100194.69;;;19.53;75.90
62881;BME280;48969;49.934;8.596;2022-09-09T13:03:49;100195.28;;;19.39;74.28
62881;BME280;48969;49.934;8.596;2022-09-09T13:06:25;100189.72;;;19.40;75.28
62881;BME280;48969;49.934;8.596;2022-09-09T13:08:52;100201.28;;;19.33;74.35
62881;BME280;48969;49.934;8.596;2022-09-09T13:13:52;100196.97;;;19.22;74.40
62881;BME280;48969;49.934;8.596;2022-09-09T13:16:28;100192.25;;;19.16;74.62
62881;BME280;48969;49.934;8.596;2022-09-09T13:18:58;100191.84;;;19.11;75.40
62881;BME280;48969;49.934;8.596;2022-09-09T13:21:33;100193.16;;;19.07;79.16
62881;BME280;48969;49.934;8.596;2022-09-09T13:23:59;100180.41;;;19.09;77.65
62881;BME280;48969;49.934;8.596;2022-09-09T13:26:28;100186.78;;;19.08;74.20
62881;BME280;48969;49.934;8.596;2022-09-09T13:28:54;100199.22;;;19.09;74.94
62881;BME280;48969;49.934;8.596;2022-09-09T13:31:29;100196.53;;;19.09;76.18
62881;BME280;48969;49.934;8.596;2022-09-09T13:33:54;100184.41;;;19.05;77.49
62881;BME280;48969;49.934;8.596;2022-09-09T13:36:31;100179.88;;;19.05;77.63
62881;BME280;48969;49.934;8.596;2022-09-09T13:38:58;100175.94;;;18.99;81.25
62881;BME280;48969;49.934;8.596;2022-09-09T13:41:32;100183.31;;;18.97;79.99
62881;BME280;48969;49.934;8.596;2022-09-09T13:43:58;100183.09;;;19.09;78.21
62881;BME280;48969;49.934;8.596;2022-09-09T13:46:34;100182.78;;;19.12;81.43
62881;BME280;48969;49.934;8.596;2022-09-09T13:49:19;100195.06;;;19.14;83.22
62881;BME280;48969;49.934;8.596;2022-09-09T13:51:47;100186.41;;;19.20;77.86
62881;BME280;48969;49.934;8.596;2022-09-09T13:54:15;100196.72;;;19.33;78.48
62881;BME280;48969;49.934;8.596;2022-09-09T13:56:42;100202.56;;;19.29;81.96
62881;BME280;48969;49.934;8.596;2022-09-09T13:59:16;100208.56;;;19.22;83.57
62881;BME280;48969;49.934;8.596;2022-09-09T14:01:44;100213.56;;;19.17;82.61
62881;BME280;48969;49.934;8.596;2022-09-09T14:04:10;100211.53;;;19.11;80.11
62881;BME280;48969;49.934;8.596;2022-09-09T14:06:36;100218.88;;;19.09;82.52
62881;BME280;48969;49.934;8.596;2022-09-09T14:09:03;100221.81;;;18.98;81.42
62881;BME280;48969;49.934;8.596;2022-09-09T14:11:29;100207.34;;;18.99;80.52
62881;BME280;48969;49.934;8.596;2022-09-09T14:13:54;100211.75;;;19.00;78.32
62881;BME280;48969;49.934;8.596;2022-09-09T14:16:19;100212.59;;;19.00;78.05
62881;BME280;48969;49.934;8.596;2022-09-09T14:18:46;100216.72;;;18.95;79.21
62881;BME280;48969;49.934;8.596;2022-09-09T14:21:11;100216.19;;;18.91;76.82
62881;BME280;48969;49.934;8.596;2022-09-09T14:23:37;100218.44;;;18.96;76.83
62881;BME280;48969;49.934;8.596;2022-09-09T14:26:04;100224.78;;;18.95;78.18
62881;BME280;48969;49.934;8.596;2022-09-09T14:28:29;100227.63;;;18.93;78.87
62881;BME280;48969;49.934;8.596;2022-09-09T14:30:59;100217.34;;;18.89;80.13
62881;BME280;48969;49.934;8.596;2022-09-09T14:33:25;100213.13;;;18.86;80.82
62881;BME280;48969;49.934;8.596;2022-09-09T14:35:55;100203.75;;;18.90;81.93
62881;BME280;48969;49.934;8.596;2022-09-09T14:38:22;100207.44;;;18.89;83.77
62881;BME280;48969;49.934;8.596;2022-09-09T14:40:47;100195.84;;;18.89;82.89
62881;BME280;48969;49.934;8.596;2022-09-09T14:43:12;100196.38;;;18.92;84.61
62881;BME280;48969;49.934;8.596;2022-09-09T14:45:39;100200.38;;;18.88;86.29